Time;durP1;ratioP1;P1;durP2;ratioP2;P2;SDS_P1;SDS_P2;PMS_P1;PMS_P2;Temp;Humidity;BMP_temperature;BMP_pressure;BME280_temperature;BME280_humidity;BME280_pressure;Samples;Min_cycle;Max_cycle;Signal;HPM_P1;HPM_P2
2022/01/24 00:01:57;;;;;;;251.67;89.60;;;;;;;-7.56;69.33;102164.45;1727248;83;25486;-69
2022/01/24 00:04:25;;;;;;;231.17;85.97;;;;;;;-7.54;69.10;102176.14;1697722;84;25578;-69
2022/01/24 00:06:52;;;;;;;233.40;81.82;;;;;;;-7.54;69.24;102180.91;1728424;83;25400;-69
2022/01/24 00:09:19;;;;;;;216.63;78.83;;;;;;;-7.52;69.37;102180.77;1701452;83;27507;-69
2022/01/24 00:14:54;;;;;;;217.10;81.12;;;;;;;-7.49;70.00;102183.11;1699228;83;25590;-69
2022/01/24 00:27:53;;;;;;;195.87;74.27;;;;;;;-7.37;69.73;102181.95;1666457;86;25874;-70
2022/01/24 00:30:20;;;;;;;209.10;77.03;;;;;;;-7.36;70.19;102182.78;1662609;86;25613;-69
2022/01/24 00:32:47;;;;;;;182.70;67.72;;;;;;;-7.34;70.62;102181.67;1666515;86;25741;-69
2022/01/24 00:35:14;;;;;;;174.07;65.08;;;;;;;-7.29;70.75;102185.17;1662605;86;27321;-69
2022/01/24 00:37:41;;;;;;;164.45;66.70;;;;;;;-7.24;70.76;102192.63;1666394;86;25519;-69
2022/01/24 00:40:10;;;;;;;171.25;66.65;;;;;;;-7.20;71.23;102193.52;1666384;86;25431;-69
2022/01/24 00:42:50;;;;;;;183.52;70.67;;;;;;;-7.15;71.39;102194.38;1666575;86;25842;-68
2022/01/24 00:45:13;;;;;;;202.80;76.25;;;;;;;-7.08;71.51;102191.53;1643709;87;25637;-70
2022/01/24 00:47:50;;;;;;;203.12;77.78;;;;;;;-6.99;71.39;102197.72;1642947;86;27869;-69
2022/01/24 00:55:23;;;;;;;199.27;73.12;;;;;;;-6.71;71.14;102196.38;1676435;84;25476;-69
2022/01/24 00:57:50;;;;;;;182.12;69.17;;;;;;;-6.64;71.29;102197.44;1686172;83;25605;-70
2022/01/24 01:00:17;;;;;;;147.02;55.73;;;;;;;-6.54;71.39;102194.75;1711513;83;27401;-68
2022/01/24 01:02:44;;;;;;;155.82;58.52;;;;;;;-6.46;71.56;102197.47;1728696;83;25391;-69
2022/01/24 01:07:54;;;;;;;169.95;64.97;;;;;;;-6.32;71.41;102200.06;1759992;81;25781;-69
2022/01/24 01:18:08;;;;;;;166.28;64.65;;;;;;;-6.22;71.24;102191.60;1739986;81;27249;-70
2022/01/24 01:18:27;;;;;;;183.60;72.40;;;;;;;-6.13;71.27;102187.23;1760031;81;25451;-70
2022/01/24 01:23:50;;;;;;;145.60;59.38;;;;;;;-6.09;71.27;102181.52;1760070;81;25550;-69
2022/01/24 01:26:28;;;;;;;166.45;61.08;;;;;;;-6.03;71.14;102189.28;1705479;82;27350;-71
2022/01/24 01:28:59;;;;;;;147.85;57.43;;;;;;;-5.98;71.22;102194.11;1759180;81;25477;-71
2022/01/24 01:31:33;;;;;;;143.95;57.25;;;;;;;-5.93;71.32;102191.30;1759033;81;25552;-71
2022/01/24 01:36:40;;;;;;;146.85;57.80;;;;;;;-5.80;71.58;102190.11;1760205;81;32812;-69
2022/01/24 01:55:45;;;;;;;132.82;50.12;;;;;;;-5.58;71.34;102176.88;1759940;81;25584;-69
2022/01/24 01:57:58;;;;;;;150.68;56.02;;;;;;;-5.55;71.05;102174.78;1754756;81;25619;-70
2022/01/24 02:00:25;;;;;;;154.80;53.23;;;;;;;-5.52;71.04;102171.80;1760028;81;25554;-70
2022/01/24 02:02:52;;;;;;;147.20;53.10;;;;;;;-5.49;71.12;102172.00;1760108;81;25367;-70
2022/01/24 02:05:21;;;;;;;165.20;57.95;;;;;;;-5.45;71.08;102177.28;1760081;81;27373;-70
2022/01/24 02:07:51;;;;;;;158.15;56.05;;;;;;;-5.41;71.10;102178.64;1657944;86;25464;-70
2022/01/24 02:10:20;;;;;;;157.65;54.58;;;;;;;-5.36;71.11;102185.59;1658237;86;25523;-70
2022/01/24 02:12:49;;;;;;;146.15;52.93;;;;;;;-5.32;71.09;102189.56;1635630;86;25732;-69
2022/01/24 02:15:25;;;;;;;155.35;55.58;;;;;;;-5.29;70.88;102197.16;1658419;86;25616;-70
2022/01/24 02:23:19;;;;;;;164.90;55.78;;;;;;;-5.22;70.73;102189.45;1578848;90;25605;-70
2022/01/24 02:25:32;;;;;;;168.93;55.75;;;;;;;-5.18;70.71;102192.59;1567336;90;25913;-71
2022/01/24 02:28:02;;;;;;;185.57;61.20;;;;;;;-5.16;70.53;102187.98;1578816;90;25721;-71
2022/01/24 02:30:56;;;;;;;188.00;56.55;;;;;;;-5.14;70.58;102186.85;1578512;90;27506;-71
2022/01/24 02:33:11;;;;;;;171.68;57.17;;;;;;;-5.16;70.40;102187.98;1576795;90;25689;-70
2022/01/24 02:35:38;;;;;;;183.72;61.05;;;;;;;-5.14;70.58;102191.28;1578792;90;25643;-70
2022/01/24 02:38:19;;;;;;;174.93;55.65;;;;;;;-5.15;70.54;102183.87;1591452;87;25801;-70
2022/01/24 02:40:36;;;;;;;147.78;50.50;;;;;;;-5.19;70.41;102182.55;1644733;85;25686;-71
2022/01/24 02:48:34;;;;;;;147.95;52.35;;;;;;;-5.12;71.01;102173.50;1606978;89;25646;-71
2022/01/24 02:53:43;;;;;;;139.47;46.70;;;;;;;-5.04;71.22;102176.66;1557920;90;25391;-71
2022/01/24 02:56:09;;;;;;;132.50;48.68;;;;;;;-5.05;70.87;102181.11;1583033;88;28012;-71
2022/01/24 02:58:36;;;;;;;139.45;50.65;;;;;;;-5.04;70.99;102174.83;1629364;88;25679;-71
2022/01/24 03:01:07;;;;;;;126.25;46.63;;;;;;;-5.02;70.98;102180.80;1629411;88;25653;-71
2022/01/24 03:03:38;;;;;;;127.50;45.43;;;;;;;-5.01;70.93;102178.48;1629404;88;26013;-71
2022/01/24 03:06:05;;;;;;;125.20;45.40;;;;;;;-4.98;70.90;102182.63;1629428;88;25576;-71
2022/01/24 03:08:33;;;;;;;118.53;44.53;;;;;;;-4.96;71.01;102181.47;1629381;88;27522;-71
2022/01/24 03:11:00;;;;;;;116.55;45.95;;;;;;;-4.92;71.05;102180.17;1629351;88;25576;-71
2022/01/24 03:15:57;;;;;;;123.50;45.88;;;;;;;-4.85;71.05;102169.80;1629437;88;25305;-71
2022/01/24 03:18:24;;;;;;;118.45;45.73;;;;;;;-4.80;71.10;102173.27;1629560;88;25666;-71
2022/01/24 03:20:51;;;;;;;121.45;46.00;;;;;;;-4.77;71.21;102175.59;1702971;84;27415;-71
2022/01/24 03:23:20;;;;;;;123.38;43.08;;;;;;;-4.72;71.25;102178.57;1705129;84;25548;-71
2022/01/24 03:25:48;;;;;;;111.15;43.33;;;;;;;-4.65;71.25;102182.21;1705231;84;25566;-72
2022/01/24 03:28:17;;;;;;;123.95;44.85;;;;;;;-4.60;71.21;102180.41;1705186;84;25631;-72
2022/01/24 03:30:45;;;;;;;117.62;44.80;;;;;;;-4.57;71.08;102176.95;1682940;84;25472;-72
2022/01/24 03:33:11;;;;;;;111.77;44.13;;;;;;;-4.52;70.91;102185.22;1705212;84;26876;-71
2022/01/24 03:35:43;;;;;;;115.97;43.90;;;;;;;-4.47;70.92;102177.31;1705132;84;25716;-71
2022/01/24 03:38:07;;;;;;;86.97;32.10;;;;;;;-4.45;70.80;102178.79;1673765;85;25485;-71
2022/01/24 03:40:33;;;;;;;111.37;43.80;;;;;;;-4.45;70.55;102183.25;1674956;85;25598;-71
2022/01/24 03:43:00;;;;;;;124.35;46.48;;;;;;;-4.45;70.62;102186.72;1675126;85;25508;-72
2022/01/24 03:45:40;;;;;;;120.80;44.40;;;;;;;-4.41;70.58;102178.81;1675039;85;28016;-72
2022/01/24 03:48:26;;;;;;;111.12;45.30;;;;;;;-4.40;70.54;102176.98;1674556;85;25605;-71
2022/01/24 03:50:38;;;;;;;118.97;46.15;;;;;;;-4.40;70.58;102176.48;1671237;85;25575;-71
2022/01/24 03:53:05;;;;;;;116.40;44.77;;;;;;;-4.42;70.60;102175.83;1690904;84;26011;-71
2022/01/24 03:55:33;;;;;;;108.30;43.92;;;;;;;-4.39;70.73;102176.83;1691981;84;25475;-72
2022/01/24 03:58:01;;;;;;;100.15;40.38;;;;;;;-4.37;70.65;102170.06;1668342;84;27184;-72
2022/01/24 04:00:28;;;;;;;114.80;42.85;;;;;;;-4.37;70.70;102173.52;1691838;84;25649;-71
2022/01/24 04:02:55;;;;;;;115.10;43.63;;;;;;;-4.35;70.65;102172.86;1700618;84;25595;-70
2022/01/24 04:05:21;;;;;;;103.20;41.63;;;;;;;-4.33;70.79;102166.09;1682460;84;26113;-70
2022/01/24 04:07:48;;;;;;;91.22;37.55;;;;;;;-4.33;70.76;102164.77;1731478;82;25534;-70
2022/01/24 04:10:18;;;;;;;90.35;37.83;;;;;;;-4.37;70.31;102164.78;1731478;82;27303;-70
2022/01/24 04:12:49;;;;;;;90.03;37.75;;;;;;;-4.35;70.38;102171.53;1731618;82;25459;-72
2022/01/24 04:18:08;;;;;;;90.50;37.13;;;;;;;-4.35;70.29;102177.33;1706734;84;25564;-71
2022/01/24 04:23:03;;;;;;;93.62;37.33;;;;;;;-4.32;70.22;102175.17;1731496;82;27487;-72
2022/01/24 04:25:30;;;;;;;83.07;35.05;;;;;;;-4.29;70.26;102178.47;1731396;82;25696;-72
2022/01/24 04:27:56;;;;;;;82.42;32.90;;;;;;;-4.29;70.28;102187.25;1698693;84;25528;-72
2022/01/24 04:30:23;;;;;;;93.27;34.53;;;;;;;-4.30;70.16;102184.77;1677183;85;25632;-72
2022/01/24 04:32:50;;;;;;;80.45;33.95;;;;;;;-4.27;70.19;102186.59;1726071;83;25648;-71
2022/01/24 04:35:16;;;;;;;81.02;34.25;;;;;;;-4.26;69.99;102184.76;1729828;83;27361;-71
2022/01/24 04:37:43;;;;;;;81.15;35.65;;;;;;;-4.23;70.04;102189.22;1729723;83;25536;-71
2022/01/24 04:40:11;;;;;;;76.22;33.08;;;;;;;-4.23;69.91;102193.69;1729817;82;25627;-71
2022/01/24 04:42:45;;;;;;;86.90;34.95;;;;;;;-4.25;69.89;102185.10;1704736;84;25546;-72
2022/01/24 04:45:27;;;;;;;77.95;34.40;;;;;;;-4.23;69.95;102195.83;1703759;82;25669;-72
2022/01/24 04:53:08;;;;;;;85.45;35.17;;;;;;;-4.21;69.97;102191.70;1643276;87;25434;-72
2022/01/24 04:55:30;;;;;;;88.62;35.58;;;;;;;-4.23;69.73;102197.66;1643701;87;25454;-71
2022/01/24 04:57:56;;;;;;;82.90;35.08;;;;;;;-4.27;69.67;102190.55;1621741;87;25722;-72
2022/01/24 05:00:22;;;;;;;79.90;34.15;;;;;;;-4.27;69.87;102194.98;1643729;87;27559;-72
2022/01/24 05:02:51;;;;;;;84.72;35.83;;;;;;;-4.30;69.65;102196.66;1643656;87;25909;-72
2022/01/24 05:05:20;;;;;;;78.60;34.98;;;;;;;-4.28;69.77;102202.60;1643809;87;25471;-72
2022/01/24 05:07:47;;;;;;;80.25;35.43;;;;;;;-4.28;69.83;102207.38;1643654;87;25897;-72
2022/01/24 05:10:22;;;;;;;86.50;35.15;;;;;;;-4.31;69.73;102207.70;1621521;87;25610;-72
2022/01/24 05:25:57;;;;;;;80.83;34.10;;;;;;;-4.37;69.64;102219.76;1697160;82;27408;-71
2022/01/24 05:28:25;;;;;;;77.92;33.18;;;;;;;-4.39;69.59;102215.14;1741384;82;25672;-72
2022/01/24 05:30:52;;;;;;;77.95;33.65;;;;;;;-4.39;69.89;102222.22;1741286;82;25648;-71
2022/01/24 05:33:18;;;;;;;79.37;33.02;;;;;;;-4.42;69.78;102222.56;1741288;82;25386;-70
2022/01/24 05:35:45;;;;;;;76.10;32.17;;;;;;;-4.47;69.76;102216.94;1659189;85;25687;-72
2022/01/24 05:38:12;;;;;;;75.10;32.15;;;;;;;-4.49;69.79;102213.14;1690105;84;28102;-71
2022/01/24 05:40:40;;;;;;;79.32;32.50;;;;;;;-4.51;69.81;102212.48;1690043;84;25593;-72
2022/01/24 05:43:07;;;;;;;73.70;31.50;;;;;;;-4.50;69.90;102212.79;1705186;84;25703;-72
2022/01/24 05:45:35;;;;;;;67.65;31.75;;;;;;;-4.47;70.19;102215.63;1705214;84;25602;-72
2022/01/24 05:48:03;;;;;;;74.82;31.97;;;;;;;-4.48;69.96;102211.31;1704670;84;25446;-72
2022/01/24 05:50:30;;;;;;;74.20;31.40;;;;;;;-4.47;69.89;102218.27;1704664;84;27449;-72
2022/01/24 05:52:57;;;;;;;75.60;31.87;;;;;;;-4.47;70.01;102215.63;1691149;84;25716;-72
2022/01/24 05:55:23;;;;;;;77.45;33.40;;;;;;;-4.48;70.00;102219.23;1708528;83;25447;-72
2022/01/24 05:57:52;;;;;;;69.50;31.70;;;;;;;-4.48;70.16;102221.88;1661545;85;25918;-72
2022/01/24 06:00:18;;;;;;;78.70;32.73;;;;;;;-4.48;69.99;102221.88;1707151;82;25541;-72
2022/01/24 06:02:44;;;;;;;72.15;30.72;;;;;;;-4.47;70.09;102230.97;1708026;82;27322;-72
2022/01/24 06:05:10;;;;;;;63.58;30.30;;;;;;;-4.48;69.99;102225.84;1668464;85;25632;-72
2022/01/24 06:07:37;;;;;;;76.65;32.70;;;;;;;-4.45;70.04;102226.84;1666280;86;25641;-72
2022/01/24 06:10:06;;;;;;;70.17;32.80;;;;;;;-4.43;70.03;102230.96;1668475;85;25486;-72
2022/01/24 06:12:34;;;;;;;73.60;32.10;;;;;;;-4.41;70.19;102234.30;1666816;86;25287;-73
2022/01/24 06:15:01;;;;;;;77.85;33.33;;;;;;;-4.41;69.99;102230.33;1668717;85;27434;-71
2022/01/24 06:17:27;;;;;;;78.72;33.13;;;;;;;-4.40;70.06;102228.00;1668749;86;25639;-71
2022/01/24 06:19:54;;;;;;;68.92;29.72;;;;;;;-4.37;70.00;102230.33;1668528;86;25624;-72
2022/01/24 06:22:20;;;;;;;73.97;31.77;;;;;;;-4.32;70.18;102229.34;1668433;84;25457;-72
2022/01/24 06:24:48;;;;;;;73.65;32.58;;;;;;;-4.29;70.09;102228.20;1668476;85;25657;-72
2022/01/24 06:27:14;;;;;;;73.72;32.70;;;;;;;-4.27;70.00;102233.30;1668012;86;27273;-72
2022/01/24 06:29:41;;;;;;;71.50;31.55;;;;;;;-4.25;69.96;102236.63;1667759;86;25798;-73
2022/01/24 06:32:08;;;;;;;71.77;31.35;;;;;;;-4.28;69.85;102237.77;1668114;84;25721;-72
2022/01/24 06:34:35;;;;;;;75.42;31.95;;;;;;;-4.26;69.94;102241.58;1665907;86;25711;-73
2022/01/24 06:37:01;;;;;;;74.75;33.40;;;;;;;-4.26;69.89;102243.71;1654501;86;25624;-73
2022/01/24 06:39:28;;;;;;;75.17;31.68;;;;;;;-4.23;70.10;102241.25;1668432;86;27310;-71
2022/01/24 06:42:11;;;;;;;78.35;32.08;;;;;;;-4.22;69.94;102241.56;1668526;86;25426;-72
2022/01/24 06:44:33;;;;;;;72.37;31.60;;;;;;;-4.23;69.91;102234.14;1654742;86;25243;-74
2022/01/24 06:47:00;;;;;;;70.05;30.57;;;;;;;-4.23;69.74;102226.72;1668527;86;25581;-72
2022/01/24 06:49:26;;;;;;;68.22;30.17;;;;;;;-4.24;69.78;102225.05;1668520;86;25598;-72
2022/01/24 06:51:53;;;;;;;77.70;32.93;;;;;;;-4.25;69.83;102227.38;1669068;84;27444;-72
2022/01/24 06:54:20;;;;;;;70.65;31.93;;;;;;;-4.24;69.85;102223.27;1674309;85;25608;-72
2022/01/24 06:56:46;;;;;;;76.95;32.28;;;;;;;-4.23;69.84;102230.69;1674359;85;25652;-72
2022/01/24 06:59:12;;;;;;;78.37;31.27;;;;;;;-4.27;69.81;102228.86;1674317;85;25417;-72
2022/01/24 07:01:39;;;;;;;76.95;31.62;;;;;;;-4.27;69.87;102231.51;1674369;85;25412;-72
2022/01/24 07:04:06;;;;;;;78.33;31.50;;;;;;;-4.25;69.99;102236.13;1674356;85;27542;-72
2022/01/24 07:06:32;;;;;;;70.70;33.00;;;;;;;-4.26;69.89;102233.14;1660279;85;25609;-72
2022/01/24 07:08:59;;;;;;;84.30;35.90;;;;;;;-4.28;69.74;102242.23;1629100;88;25644;-72
2022/01/24 07:11:26;;;;;;;79.07;33.60;;;;;;;-4.29;69.86;102240.09;1673965;85;25619;-75
2022/01/24 07:13:53;;;;;;;71.15;32.98;;;;;;;-4.28;69.96;102239.59;1674566;85;25520;-71
2022/01/24 07:16:20;;;;;;;77.53;35.52;;;;;;;-4.29;69.91;102231.33;1646521;87;27328;-71
2022/01/24 07:18:58;;;;;;;80.07;35.17;;;;;;;-4.32;69.86;102233.30;1674002;85;25616;-72
2022/01/24 07:21:25;;;;;;;76.92;33.20;;;;;;;-4.29;69.97;102236.14;1649910;85;25650;-72
2022/01/24 07:23:52;;;;;;;79.15;34.30;;;;;;;-4.26;70.01;102235.78;1645701;87;25508;-72
2022/01/24 07:26:18;;;;;;;79.92;33.05;;;;;;;-4.24;69.94;102227.70;1650889;85;25529;-72
2022/01/24 07:28:45;;;;;;;76.90;35.03;;;;;;;-4.19;70.02;102240.78;1674056;85;27282;-72
2022/01/24 07:31:12;;;;;;;80.38;35.75;;;;;;;-4.17;69.86;102236.63;1645639;87;25730;-72
2022/01/24 07:33:40;;;;;;;73.72;33.83;;;;;;;-4.15;69.95;102233.34;1704652;81;25816;-72
2022/01/24 07:36:07;;;;;;;77.60;33.92;;;;;;;-4.13;69.93;102237.46;1728763;82;25935;-72
2022/01/24 07:38:33;;;;;;;75.52;33.05;;;;;;;-4.08;69.86;102238.30;1722737;82;25637;-72
2022/01/24 07:41:01;;;;;;;74.22;33.55;;;;;;;-4.05;69.67;102231.84;1735387;82;27915;-72
2022/01/24 07:43:27;;;;;;;66.07;33.00;;;;;;;-4.02;69.79;102235.02;1739469;82;25777;-73
2022/01/24 07:45:54;;;;;;;73.55;33.33;;;;;;;-3.96;69.72;102237.48;1713778;82;25711;-70
2022/01/24 07:48:21;;;;;;;80.53;32.88;;;;;;;-3.96;69.49;102242.27;1739004;82;25977;-73
2022/01/24 07:50:51;;;;;;;76.22;33.98;;;;;;;-3.92;69.57;102240.12;1739666;82;25574;-73
2022/01/24 07:53:17;;;;;;;78.42;34.35;;;;;;;-3.85;69.67;102233.67;1757383;81;27338;-72
2022/01/24 07:55:45;;;;;;;80.38;33.02;;;;;;;-3.83;69.30;102231.21;1769810;81;25704;-72
2022/01/24 07:58:11;;;;;;;78.28;33.33;;;;;;;-3.83;69.26;102225.92;1770486;81;26278;-72
2022/01/24 08:00:39;;;;;;;68.80;32.88;;;;;;;-3.77;69.33;102231.03;1770437;81;26224;-73
2022/01/24 08:03:07;;;;;;;81.17;33.85;;;;;;;-3.73;69.08;102231.02;1770433;81;25643;-73
2022/01/24 08:05:36;;;;;;;78.72;33.95;;;;;;;-3.69;68.96;102231.03;1770426;81;27324;-73
2022/01/24 08:08:04;;;;;;;74.72;32.40;;;;;;;-3.67;68.93;102228.22;1770513;81;25748;-73
2022/01/24 08:10:30;;;;;;;77.22;33.53;;;;;;;-3.60;68.91;102236.63;1771128;81;25598;-72
2022/01/24 08:12:57;;;;;;;69.40;30.70;;;;;;;-3.54;68.98;102237.80;1734767;82;25567;-73
2022/01/24 08:15:24;;;;;;;68.35;30.77;;;;;;;-3.50;68.66;102238.29;1710493;82;25558;-77
2022/01/24 08:17:51;;;;;;;70.47;31.52;;;;;;;-3.48;68.54;102237.63;1735079;82;27879;-72
2022/01/24 08:20:19;;;;;;;66.22;29.95;;;;;;;-3.41;68.28;102236.77;1734780;82;25587;-72
2022/01/24 08:22:45;;;;;;;71.30;32.30;;;;;;;-3.35;68.54;102229.99;1710021;82;25529;-72
2022/01/24 08:25:12;;;;;;;77.22;31.20;;;;;;;-3.27;68.59;102233.95;1734796;82;25561;-72
2022/01/24 08:27:40;;;;;;;66.35;30.92;;;;;;;-3.19;68.65;102234.41;1734925;82;25454;-73
2022/01/24 08:30:12;;;;;;;64.70;31.23;;;;;;;-3.11;68.19;102233.58;1710573;82;28124;-73
2022/01/24 08:32:40;;;;;;;65.85;28.77;;;;;;;-3.09;68.00;102235.04;1730352;82;25425;-72
2022/01/24 08:35:09;;;;;;;66.40;31.35;;;;;;;-3.03;68.02;102224.25;1734763;82;25553;-72
2022/01/24 08:37:37;;;;;;;64.10;29.65;;;;;;;-2.93;67.82;102235.98;1753760;81;25303;-71
2022/01/24 08:40:07;;;;;;;71.57;30.60;;;;;;;-2.90;67.45;102235.64;1771210;81;25612;-72
2022/01/24 08:42:53;;;;;;;70.37;32.63;;;;;;;-2.88;67.30;102226.55;1771686;81;28061;-73
2022/01/24 08:47:57;;;;;;;68.05;29.67;;;;;;;-2.83;67.32;102224.20;1771213;81;25401;-72
2022/01/24 08:50:26;;;;;;;70.92;31.15;;;;;;;-2.78;67.09;102232.12;1744641;81;25474;-72
2022/01/24 08:52:59;;;;;;;65.83;29.23;;;;;;;-2.73;67.24;102222.64;1770933;81;25723;-72
2022/01/24 08:55:22;;;;;;;67.12;28.05;;;;;;;-2.64;66.95;102227.40;1769805;81;27249;-73
2022/01/24 08:57:49;;;;;;;58.78;26.73;;;;;;;-2.59;67.03;102226.89;1742372;81;25630;-73
2022/01/24 09:00:16;;;;;;;62.08;27.65;;;;;;;-2.54;66.73;102225.86;1770610;81;25431;-72
2022/01/24 09:02:42;;;;;;;57.30;27.98;;;;;;;-2.54;66.00;102226.68;1765996;81;25446;-73
2022/01/24 09:05:09;;;;;;;58.83;27.00;;;;;;;-2.53;66.17;102224.37;1770672;81;25616;-73
2022/01/24 09:07:36;;;;;;;62.60;28.80;;;;;;;-2.50;66.09;102227.19;1742344;81;27987;-74
2022/01/24 09:10:06;;;;;;;63.90;27.82;;;;;;;-2.47;66.04;102225.01;1769762;81;25675;-72
2022/01/24 09:12:33;;;;;;;62.90;26.23;;;;;;;-2.42;65.91;102228.44;1771212;81;25537;-71
2022/01/24 09:15:00;;;;;;;65.90;28.00;;;;;;;-2.42;65.71;102228.44;1771301;81;25479;-73
2022/01/24 09:17:26;;;;;;;57.45;27.15;;;;;;;-2.39;65.80;102221.98;1770860;81;25614;-73
2022/01/24 09:19:53;;;;;;;61.75;27.48;;;;;;;-2.36;66.08;102221.13;1770614;81;27343;-73
2022/01/24 09:22:19;;;;;;;58.10;26.75;;;;;;;-2.30;65.86;102219.11;1770550;81;25620;-72
2022/01/24 09:24:46;;;;;;;67.03;27.98;;;;;;;-2.26;65.63;102217.74;1770644;81;25619;-72
2022/01/24 09:27:12;;;;;;;65.35;29.02;;;;;;;-2.21;65.69;102216.37;1742252;81;26087;-73
2022/01/24 09:29:39;;;;;;;58.95;27.62;;;;;;;-2.19;65.66;102207.25;1770674;81;25403;-73
2022/01/24 09:32:06;;;;;;;55.25;26.48;;;;;;;-2.16;65.71;102212.21;1770497;81;27294;-74
2022/01/24 09:34:32;;;;;;;55.12;25.10;;;;;;;-2.12;65.20;102208.70;1770579;81;25416;-73
2022/01/24 09:36:59;;;;;;;56.50;27.05;;;;;;;-2.15;64.81;102209.86;1770611;81;25283;-73
2022/01/24 09:39:26;;;;;;;59.60;27.65;;;;;;;-2.17;64.84;102219.83;1742779;81;25984;-73
2022/01/24 09:41:54;;;;;;;52.78;27.02;;;;;;;-2.16;65.01;102220.64;1770861;81;25556;-74
2022/01/24 09:44:21;;;;;;;55.60;25.00;;;;;;;-2.18;64.90;102214.22;1771903;81;27378;-71
2022/01/24 09:46:48;;;;;;;52.17;24.37;;;;;;;-2.17;64.77;102225.12;1770547;81;25631;-73
2022/01/24 09:49:16;;;;;;;57.25;27.27;;;;;;;-2.18;64.92;102208.92;1766077;81;25690;-72
2022/01/24 09:51:44;;;;;;;59.03;26.00;;;;;;;-2.15;65.12;102195.28;1770588;81;25918;-72
2022/01/24 09:54:12;;;;;;;57.08;25.52;;;;;;;-2.11;64.82;102194.42;1758566;81;25921;-73
2022/01/24 09:56:40;;;;;;;63.28;26.97;;;;;;;-2.08;64.98;102200.22;1729742;81;27780;-73
2022/01/24 09:59:07;;;;;;;59.83;26.27;;;;;;;-2.02;65.13;102200.00;1753351;81;25588;-73
2022/01/24 10:01:36;;;;;;;58.08;26.75;;;;;;;-1.93;65.02;102195.45;1753368;81;25561;-73
2022/01/24 10:04:20;;;;;;;58.20;25.32;;;;;;;-1.86;65.03;102193.72;1752386;81;26172;-73
2022/01/24 10:07:12;;;;;;;54.75;24.87;;;;;;;-1.81;64.87;102188.70;1752152;81;25702;-73
2022/01/24 10:09:51;;;;;;;59.55;25.55;;;;;;;-1.73;64.75;102195.78;1753391;81;27349;-72
2022/01/24 10:12:33;;;;;;;54.93;25.37;;;;;;;-1.72;64.46;102192.95;1753532;81;25714;-73
2022/01/24 10:17:41;;;;;;;66.22;27.60;;;;;;;-1.63;64.57;102199.00;1753403;81;25450;-73
2022/01/24 10:20:28;;;;;;;39.05;20.23;;;;;;;-1.64;64.50;102192.53;1753478;81;32764;-72
2022/01/24 10:23:09;;;;;;;58.02;27.35;;;;;;;-1.62;64.08;102192.66;1753338;81;27512;-72
2022/01/24 10:26:00;;;;;;;61.05;26.62;;;;;;;-1.63;64.11;102190.22;1753326;81;25538;-73
2022/01/24 10:28:38;;;;;;;55.10;26.12;;;;;;;-1.61;64.12;102186.36;1753355;81;25316;-72
2022/01/24 10:31:21;;;;;;;54.88;24.65;;;;;;;-1.60;64.16;102189.35;1753249;81;25980;-72
2022/01/24 10:33:58;;;;;;;52.93;25.62;;;;;;;-1.60;64.02;102178.73;1753228;81;25549;-71
2022/01/24 10:36:51;;;;;;;55.43;26.23;;;;;;;-1.59;63.92;102185.67;1729398;81;28199;-72
2022/01/24 10:45:19;;;;;;;57.50;24.87;;;;;;;-1.67;63.82;102171.16;1736298;81;26006;-72
2022/01/24 10:47:51;;;;;;;57.50;26.85;;;;;;;-1.65;63.92;102174.95;1753347;81;25453;-72
2022/01/24 10:50:28;;;;;;;58.38;25.43;;;;;;;-1.68;63.87;102161.56;1753315;81;27968;-72
2022/01/24 10:52:58;;;;;;;59.80;25.72;;;;;;;-1.67;63.98;102162.37;1753964;81;25388;-72
2022/01/24 10:55:28;;;;;;;53.83;26.93;;;;;;;-1.68;64.04;102154.12;1771175;81;25579;-72
2022/01/24 10:58:08;;;;;;;61.18;28.10;;;;;;;-1.66;63.98;102159.55;1770879;81;25570;-73
2022/01/24 11:00:36;;;;;;;;;;;;;;;-1.60;63.94;102159.31;1747283;81;25638;-73
2022/01/24 11:03:06;;;;;;;64.67;27.98;;;;;;;-1.59;64.12;102157.80;1771180;81;27525;-72
2022/01/24 11:05:39;;;;;;;59.25;27.73;;;;;;;-1.57;63.98;102152.31;1744879;81;25395;-73
2022/01/24 11:08:13;;;;;;;56.60;27.42;;;;;;;-1.53;64.11;102156.27;1771204;81;25460;-73
2022/01/24 11:10:46;;;;;;;63.83;26.68;;;;;;;-1.53;64.15;102146.47;1771109;81;26187;-73
2022/01/24 11:13:24;;;;;;;59.63;27.42;;;;;;;-1.47;64.23;102146.23;1771633;81;25576;-75
2022/01/24 11:15:55;;;;;;;60.25;26.95;;;;;;;-1.44;63.95;102147.72;1770953;81;27342;-72
2022/01/24 11:18:18;;;;;;;55.73;27.50;;;;;;;-1.43;63.98;102140.90;1766195;81;25666;-72
2022/01/24 11:20:46;;;;;;;65.20;27.40;;;;;;;-1.34;64.17;102140.30;1771094;81;25550;-73
2022/01/24 11:23:20;;;;;;;62.88;29.20;;;;;;;-1.26;64.08;102134.05;1745044;81;25592;-73
2022/01/24 11:25:43;;;;;;;63.42;27.67;;;;;;;-1.20;63.89;102134.13;1770268;81;25553;-72
2022/01/24 11:28:11;;;;;;;61.85;27.27;;;;;;;-1.21;63.47;102139.14;1767086;81;28039;-73
2022/01/24 11:30:46;;;;;;;62.80;26.82;;;;;;;-1.22;63.53;102130.03;1771051;81;25391;-72
2022/01/24 11:33:17;;;;;;;55.80;26.50;;;;;;;-1.22;63.41;102129.52;1771259;81;25548;-72
2022/01/24 11:35:52;;;;;;;59.30;27.07;;;;;;;-1.19;63.79;102121.19;1771133;81;25583;-73
2022/01/24 11:38:42;;;;;;;52.38;26.15;;;;;;;-1.17;63.57;102119.67;1771137;81;25413;-73
2022/01/24 11:41:33;;;;;;;57.43;26.00;;;;;;;-1.17;63.75;102111.70;1745326;81;27409;-72
2022/01/24 11:44:08;;;;;;;55.73;26.42;;;;;;;-1.10;63.69;102113.93;1770997;81;25738;-73
2022/01/24 11:46:52;;;;;;;59.25;26.55;;;;;;;-1.07;63.49;102116.70;1770300;81;25581;-73
2022/01/24 11:49:23;;;;;;;58.33;27.13;;;;;;;-1.07;63.34;102118.88;1743691;81;25991;-72
2022/01/24 11:52:14;;;;;;;56.42;26.30;;;;;;;-1.08;63.43;102102.61;1744672;81;25470;-72
2022/01/24 11:55:13;;;;;;;58.52;27.65;;;;;;;-1.05;63.58;102093.45;1770688;81;27633;-72
2022/01/24 11:57:40;;;;;;;52.00;25.75;;;;;;;-1.01;63.47;102096.05;1768354;81;25449;-72
2022/01/24 12:00:12;;;;;;;54.83;25.50;;;;;;;-1.01;63.68;102087.56;1770782;81;25638;-72
2022/01/24 12:02:52;;;;;;;56.77;26.82;;;;;;;-0.94;63.98;102091.63;1770800;81;25626;-72
2022/01/24 12:05:26;;;;;;;55.65;26.90;;;;;;;-0.87;63.88;102078.41;1742362;81;25694;-71
2022/01/24 12:08:00;;;;;;;56.83;25.82;;;;;;;-0.84;63.64;102080.18;1770809;81;27317;-72
2022/01/24 12:10:40;;;;;;;58.95;26.15;;;;;;;-0.82;63.58;102081.33;1770721;81;25610;-72
2022/01/24 12:13:25;;;;;;;56.55;27.07;;;;;;;-0.73;63.95;102085.52;1770751;81;25812;-73
2022/01/24 12:16:10;;;;;;;60.70;28.42;;;;;;;-0.68;63.48;102088.91;1769908;81;25579;-72
2022/01/24 12:18:45;;;;;;;55.67;26.47;;;;;;;-0.64;63.63;102089.69;1771156;81;25463;-73
2022/01/24 12:21:16;;;;;;;60.90;27.70;;;;;;;-0.58;63.63;102088.94;1770765;81;27352;-72
2022/01/24 12:23:48;;;;;;;63.80;29.35;;;;;;;-0.55;63.32;102083.73;1768832;81;25598;-73
2022/01/24 12:26:20;;;;;;;59.85;28.42;;;;;;;-0.55;62.89;102081.07;1770868;81;25377;-72
2022/01/24 12:28:52;;;;;;;58.50;26.23;;;;;;;-0.58;62.79;102079.62;1742441;81;25929;-73
2022/01/24 12:31:39;;;;;;;59.23;27.45;;;;;;;-0.62;62.55;102080.20;1770768;81;25708;-73
2022/01/24 12:34:19;;;;;;;60.05;27.82;;;;;;;-0.68;62.83;102073.81;1742327;81;28136;-72
2022/01/24 12:36:51;;;;;;;57.38;26.33;;;;;;;-0.65;63.16;102073.92;1770654;81;25630;-72
2022/01/24 12:39:25;;;;;;;55.43;26.77;;;;;;;-0.62;63.10;102077.02;1770694;81;25663;-73
2022/01/24 12:42:00;;;;;;;53.23;25.55;;;;;;;-0.62;63.22;102062.40;1770766;81;25872;-73
2022/01/24 12:47:11;;;;;;;55.38;26.37;;;;;;;-0.57;63.14;102056.00;1770700;81;27407;-72
2022/01/24 12:49:40;;;;;;;53.55;25.97;;;;;;;-0.67;62.64;102048.86;1770700;81;25496;-72
2022/01/24 12:52:11;;;;;;;57.60;25.65;;;;;;;-0.74;62.58;102049.31;1770671;81;25480;-72
2022/01/24 12:54:41;;;;;;;48.28;24.70;;;;;;;-0.78;62.94;102048.06;1761815;81;26140;-72
2022/01/24 12:57:14;;;;;;;49.73;24.50;;;;;;;-0.76;63.09;102047.36;1753475;81;25630;-72
2022/01/24 12:59:55;;;;;;;50.73;26.00;;;;;;;-0.82;63.05;102051.61;1753422;81;27332;-72
2022/01/24 13:02:28;;;;;;;53.23;26.12;;;;;;;-0.86;63.17;102052.17;1752684;81;25562;-72